Indian Wells, AZ

12:43 PM MST on February 14, 2016 (GMT -0700)
Winslow-Lindbergh Regional | | Change Station
CLOSE
Current Station
Airport
Location: Winslow,
Elevation: 4882 ft
Nearby Weather Stations

Elev 4882 ft 35.03 °N, 110.72 °W | Updated 47 minutes ago

Clear
Clear
55 °F
Feels Like 55 °F
N
0
Wind Variable Wind from North

Today
High -- | Low -- °F
--% Chance of Precip.
Yesterday
High -- | Low -- °F
Precip. -- in
Pressure 30.12 in
Visibility 10.0 miles
Clouds Clear
Dew Point 23 °F
Humidity 29%
Rainfall 0.00 in
Snow Depth Not available.
7:08 AM 6:01 PM
Waxing Crescent, 44% visible
METAR KINW 141856Z AUTO 00000KT 10SM CLR 13/M05 A3016 RMK AO2 PRESFR SLP198 T01281050
Pressure 30.12 in
Visibility 10.0 miles
Clouds Clear
Dew Point 23 °F
Humidity 29%
Rainfall 0.00 in
Snow Depth Not available.
7:08 AM 6:01 PM
Waxing Crescent, 44% visible
METAR KINW 141856Z AUTO 00000KT 10SM CLR 13/M05 A3016 RMK AO2 PRESFR SLP198 T01281050

10-Day Weather Forecast

Almanac

Astronomy

Feb. 14, 2016 Rise Set
Actual Time
Civil Twilight
Nautical Twilight
Astronomical Twilight
Moon
Length of Visible Light
Length of Day
Tomorrow will be .
, % of the Moon is Illuminated

Today's Extremes

State Highs State Lows

Community

WunderPhotos

Upload Photos

1,892,879 photos uploaded!

WunderBlog® & News

Nearby

Air Quality

  Air Quality AQ Index Pollutant
Not available.

Snow Depth

Station Depth Elevation

Earthquake Activity

City Distance Mag. Time & Date
Minimum magnitude displayed is 2.5.

Coastal Water Temperatures

Place Temperature

Stations

Nearby Weather Stations

Station Location Temp. Windchill Dew Point Humidity Wind Precip. Elev Updated Type
                   

Watches & Warnings

There are currently no watches in effect.